Time;durP1;ratioP1;P1;durP2;ratioP2;P2;SDS_P1;SDS_P2;PMS_P1;PMS_P2;Temp;Humidity;BMP_temperature;BMP_pressure;BME280_temperature;BME280_humidity;BME280_pressure;Samples;Min_cycle;Max_cycle;Signal;HPM_P1;HPM_P2
2022/10/02 00:00:40;;;;;;;247.63;61.47;;;;;;;;;;5049950;28;20098;-62
2022/10/02 00:03:24;;;;;;;211.25;53.00;;;;;;;;;;5050607;28;20041;-65
2022/10/02 00:05:56;;;;;;;274.42;59.72;;;;;;;;;;5044920;28;20476;-65
2022/10/02 00:08:25;;;;;;;242.60;53.38;;;;;;;;;;5046018;28;20041;-66
2022/10/02 00:10:54;;;;;;;216.18;52.03;;;;;;;;;;5045982;28;20048;-64
2022/10/02 00:13:26;;;;;;;189.18;48.88;;;;;;;;;;5045717;28;20525;-64
2022/10/02 00:15:53;;;;;;;204.38;49.50;;;;;;;;;;5046878;28;20099;-64
2022/10/02 00:18:27;;;;;;;182.77;48.80;;;;;;;;;;5049095;28;20421;-64
2022/10/02 00:21:03;;;;;;;188.98;47.83;;;;;;;;;;5045780;28;20045;-65
2022/10/02 00:23:38;;;;;;;178.40;45.67;;;;;;;;;;5045520;28;20684;-65
2022/10/02 00:26:12;;;;;;;161.90;44.65;;;;;;;;;;5046102;28;20090;-63
2022/10/02 00:28:45;;;;;;;160.98;45.00;;;;;;;;;;5045991;28;20110;-63
2022/10/02 00:31:14;;;;;;;160.35;41.40;;;;;;;;;;5045521;28;20509;-62
2022/10/02 00:33:41;;;;;;;183.00;42.42;;;;;;;;;;5048951;28;20140;-63
2022/10/02 00:36:07;;;;;;;155.88;41.70;;;;;;;;;;5047874;28;20048;-62
2022/10/02 00:38:39;;;;;;;138.70;38.67;;;;;;;;;;5045883;28;20049;-62
2022/10/02 00:41:09;;;;;;;156.55;41.25;;;;;;;;;;5045204;28;20060;-62
2022/10/02 00:43:43;;;;;;;175.23;40.97;;;;;;;;;;5039239;28;20053;-62
2022/10/02 00:46:25;;;;;;;176.38;43.40;;;;;;;;;;5030074;28;20382;-62
2022/10/02 00:49:17;;;;;;;193.90;43.28;;;;;;;;;;5046857;28;20051;-62
2022/10/02 00:52:07;;;;;;;183.65;40.92;;;;;;;;;;5045821;28;20045;-63
2022/10/02 00:54:52;;;;;;;182.45;42.40;;;;;;;;;;5027729;28;20057;-62
2022/10/02 00:57:21;;;;;;;164.50;40.85;;;;;;;;;;5046137;28;20041;-62
2022/10/02 00:59:56;;;;;;;177.27;41.50;;;;;;;;;;5038087;28;20048;-67
2022/10/02 01:02:22;;;;;;;154.38;39.58;;;;;;;;;;5034414;28;20116;-66
2022/10/02 01:04:49;;;;;;;177.10;41.00;;;;;;;;;;5035869;28;20819;-66
2022/10/02 01:07:16;;;;;;;182.07;42.22;;;;;;;;;;5026259;28;20057;-66
2022/10/02 01:09:43;;;;;;;194.20;42.50;;;;;;;;;;5026927;28;20045;-65
2022/10/02 01:12:10;;;;;;;163.80;41.47;;;;;;;;;;5026685;28;20053;-63
2022/10/02 01:14:38;;;;;;;161.80;41.63;;;;;;;;;;5026050;28;20052;-63
2022/10/02 01:17:06;;;;;;;138.20;39.78;;;;;;;;;;5026263;28;20060;-62
2022/10/02 01:19:40;;;;;;;154.77;40.22;;;;;;;;;;5029735;28;20047;-63
2022/10/02 01:22:21;;;;;;;180.00;42.15;;;;;;;;;;5041190;28;20049;-63
2022/10/02 01:24:52;;;;;;;150.43;41.28;;;;;;;;;;5026376;28;20053;-63
2022/10/02 01:27:18;;;;;;;194.95;42.70;;;;;;;;;;5043316;28;20664;-65
2022/10/02 01:29:46;;;;;;;196.85;42.42;;;;;;;;;;5028153;28;20481;-63
2022/10/02 01:32:13;;;;;;;162.82;42.45;;;;;;;;;;5042448;28;20056;-63
2022/10/02 01:34:40;;;;;;;153.10;40.20;;;;;;;;;;5048332;28;20536;-63
2022/10/02 01:37:07;;;;;;;185.82;43.53;;;;;;;;;;5044388;28;20103;-62
2022/10/02 01:39:34;;;;;;;164.02;42.97;;;;;;;;;;5049754;28;20048;-63
2022/10/02 01:42:00;;;;;;;211.85;44.83;;;;;;;;;;5044447;28;20047;-63
2022/10/02 01:44:27;;;;;;;182.75;42.97;;;;;;;;;;5043872;28;20464;-62
2022/10/02 01:47:03;;;;;;;172.63;41.15;;;;;;;;;;5044089;28;20033;-63
2022/10/02 01:49:54;;;;;;;195.65;45.40;;;;;;;;;;5044110;28;20033;-61
2022/10/02 01:52:23;;;;;;;196.77;44.50;;;;;;;;;;5015355;28;20062;-64
2022/10/02 01:54:50;;;;;;;170.07;43.67;;;;;;;;;;5026324;28;20053;-61
2022/10/02 01:57:29;;;;;;;205.70;45.53;;;;;;;;;;5026469;28;20061;-61
2022/10/02 02:00:10;;;;;;;219.02;47.55;;;;;;;;;;5021475;28;20041;-64
2022/10/02 02:02:42;;;;;;;170.65;44.72;;;;;;;;;;5022224;28;20053;-64
2022/10/02 02:05:16;;;;;;;186.70;45.25;;;;;;;;;;5021523;28;20038;-64
2022/10/02 02:07:46;;;;;;;173.07;44.40;;;;;;;;;;5019962;28;20518;-64
2022/10/02 02:10:17;;;;;;;196.20;48.50;;;;;;;;;;5021418;28;20058;-63
2022/10/02 02:12:55;;;;;;;192.73;47.10;;;;;;;;;;5023701;28;20053;-64
2022/10/02 02:15:25;;;;;;;194.27;46.53;;;;;;;;;;5024469;28;20232;-64
2022/10/02 02:17:55;;;;;;;201.93;46.30;;;;;;;;;;5020465;28;20494;-64
2022/10/02 02:20:27;;;;;;;208.02;49.08;;;;;;;;;;5020972;28;20045;-64
2022/10/02 02:22:54;;;;;;;204.52;46.97;;;;;;;;;;5020970;28;20146;-64
2022/10/02 02:25:24;;;;;;;174.65;44.30;;;;;;;;;;5021669;28;20042;-64
2022/10/02 02:28:02;;;;;;;200.80;46.40;;;;;;;;;;5023133;28;20158;-64
2022/10/02 02:30:30;;;;;;;170.73;42.97;;;;;;;;;;5046990;28;20118;-64
2022/10/02 02:33:00;;;;;;;177.27;46.15;;;;;;;;;;5048221;28;20456;-63
2022/10/02 02:35:33;;;;;;;164.27;44.08;;;;;;;;;;5043816;28;20045;-62
2022/10/02 02:38:02;;;;;;;170.15;43.25;;;;;;;;;;5043023;28;20127;-63
2022/10/02 02:40:30;;;;;;;175.40;44.60;;;;;;;;;;5046139;28;20037;-64
2022/10/02 02:43:03;;;;;;;181.80;44.22;;;;;;;;;;5044242;28;20049;-63
2022/10/02 02:45:40;;;;;;;176.45;45.42;;;;;;;;;;5047806;28;20041;-62
2022/10/02 02:48:09;;;;;;;180.35;44.08;;;;;;;;;;5044186;28;20578;-62
2022/10/02 02:51:02;;;;;;;144.43;41.40;;;;;;;;;;5043493;28;20037;-62
2022/10/02 02:53:30;;;;;;;188.05;44.45;;;;;;;;;;5042201;28;20044;-62
2022/10/02 02:55:58;;;;;;;147.88;41.47;;;;;;;;;;5043669;28;20068;-62
2022/10/02 02:58:25;;;;;;;155.63;43.45;;;;;;;;;;5043877;28;20056;-64
2022/10/02 03:00:51;;;;;;;186.50;42.47;;;;;;;;;;5045798;28;20102;-65
2022/10/02 03:03:18;;;;;;;149.15;41.00;;;;;;;;;;5047116;28;20041;-64
2022/10/02 03:05:47;;;;;;;183.50;44.88;;;;;;;;;;5043170;28;20045;-64
2022/10/02 03:08:17;;;;;;;184.88;45.63;;;;;;;;;;5042961;28;20099;-63
2022/10/02 03:10:51;;;;;;;151.23;41.58;;;;;;;;;;5047589;28;20567;-63
2022/10/02 03:13:25;;;;;;;176.65;43.78;;;;;;;;;;5046913;28;20049;-64
2022/10/02 03:16:01;;;;;;;210.85;45.65;;;;;;;;;;5044760;28;20084;-64
2022/10/02 03:18:31;;;;;;;162.75;42.63;;;;;;;;;;5048238;28;20041;-63
2022/10/02 03:21:09;;;;;;;183.45;45.42;;;;;;;;;;5047440;28;20045;-63
2022/10/02 03:23:59;;;;;;;154.20;42.65;;;;;;;;;;5046813;28;20104;-63
2022/10/02 03:26:33;;;;;;;152.02;42.28;;;;;;;;;;5044110;28;20501;-63
2022/10/02 03:29:02;;;;;;;160.27;43.53;;;;;;;;;;5047361;28;20037;-63
2022/10/02 03:31:29;;;;;;;188.38;45.38;;;;;;;;;;5047071;28;20720;-63
2022/10/02 03:33:57;;;;;;;188.32;45.83;;;;;;;;;;5048718;28;20150;-63
2022/10/02 03:36:24;;;;;;;164.30;44.97;;;;;;;;;;5050908;28;20033;-63
2022/10/02 03:38:53;;;;;;;195.23;44.72;;;;;;;;;;5046829;28;20524;-63
2022/10/02 03:41:39;;;;;;;206.35;46.63;;;;;;;;;;5046640;28;20048;-63
2022/10/02 03:44:06;;;;;;;172.23;45.90;;;;;;;;;;5046230;28;20397;-62
2022/10/02 03:46:32;;;;;;;167.20;44.10;;;;;;;;;;5046780;28;20034;-60
2022/10/02 03:48:59;;;;;;;197.30;45.40;;;;;;;;;;5047145;28;20056;-67
2022/10/02 03:51:26;;;;;;;185.40;46.38;;;;;;;;;;5050860;28;20506;-67
2022/10/02 03:53:52;;;;;;;183.48;45.25;;;;;;;;;;5050225;28;20045;-65
2022/10/02 03:56:34;;;;;;;165.57;44.08;;;;;;;;;;5046770;28;20037;-64
2022/10/02 03:59:04;;;;;;;158.07;44.05;;;;;;;;;;5046846;28;20048;-63
2022/10/02 04:01:38;;;;;;;157.98;44.08;;;;;;;;;;5046958;28;20060;-63
2022/10/02 04:04:09;;;;;;;188.50;46.05;;;;;;;;;;5045782;28;20056;-65
2022/10/02 04:06:41;;;;;;;180.05;45.38;;;;;;;;;;5047345;28;20401;-64
2022/10/02 04:09:17;;;;;;;198.15;46.85;;;;;;;;;;5047118;28;20045;-59
2022/10/02 04:11:47;;;;;;;210.80;49.33;;;;;;;;;;5045453;28;20049;-62
2022/10/02 04:14:22;;;;;;;180.38;46.95;;;;;;;;;;5040088;28;20045;-62
2022/10/02 04:16:57;;;;;;;188.25;47.10;;;;;;;;;;5045680;28;20396;-61
2022/10/02 04:19:33;;;;;;;178.77;46.33;;;;;;;;;;5045858;28;20041;-65
2022/10/02 04:22:07;;;;;;;230.07;49.72;;;;;;;;;;5046889;28;20051;-64
2022/10/02 04:24:33;;;;;;;173.45;47.03;;;;;;;;;;5047187;28;20036;-62
2022/10/02 04:27:21;;;;;;;200.98;48.17;;;;;;;;;;5045455;28;20044;-61
2022/10/02 04:29:53;;;;;;;213.55;49.47;;;;;;;;;;5048153;28;20547;-61
2022/10/02 04:32:25;;;;;;;195.70;48.47;;;;;;;;;;5045276;28;20409;-62
2022/10/02 04:34:51;;;;;;;205.68;49.78;;;;;;;;;;5045468;28;20041;-62
2022/10/02 04:37:33;;;;;;;175.85;48.28;;;;;;;;;;5045858;28;20046;-63
2022/10/02 04:40:12;;;;;;;212.38;48.92;;;;;;;;;;5046604;28;20048;-62
2022/10/02 04:42:47;;;;;;;179.48;48.00;;;;;;;;;;5046062;28;20049;-63
2022/10/02 04:45:19;;;;;;;179.45;46.17;;;;;;;;;;5049440;28;20041;-63
2022/10/02 04:47:55;;;;;;;202.73;47.15;;;;;;;;;;5044648;28;20056;-63
2022/10/02 04:50:21;;;;;;;199.00;48.30;;;;;;;;;;5045609;28;20390;-63
2022/10/02 04:52:53;;;;;;;169.93;45.75;;;;;;;;;;5045581;28;20035;-63
2022/10/02 04:55:22;;;;;;;202.63;49.10;;;;;;;;;;5045630;28;20073;-64
2022/10/02 04:57:52;;;;;;;229.10;48.50;;;;;;;;;;5047525;28;20517;-63
2022/10/02 05:00:19;;;;;;;186.90;47.17;;;;;;;;;;5047899;28;20049;-63
2022/10/02 05:03:04;;;;;;;201.25;47.25;;;;;;;;;;5044777;28;20103;-62
2022/10/02 05:05:49;;;;;;;193.70;47.83;;;;;;;;;;5045746;28;20049;-62
2022/10/02 05:08:18;;;;;;;164.90;45.33;;;;;;;;;;5049379;28;20044;-62
2022/10/02 05:10:47;;;;;;;188.35;45.63;;;;;;;;;;5049367;28;20053;-62
2022/10/02 05:13:26;;;;;;;199.00;47.00;;;;;;;;;;5045493;28;20069;-62
2022/10/02 05:16:11;;;;;;;216.27;50.00;;;;;;;;;;5047856;28;20532;-63
2022/10/02 05:18:37;;;;;;;176.43;45.03;;;;;;;;;;5045922;28;20539;-61
2022/10/02 05:21:23;;;;;;;154.45;41.55;;;;;;;;;;5045631;28;20079;-60
2022/10/02 05:23:53;;;;;;;222.55;49.22;;;;;;;;;;5044650;28;20041;-61
2022/10/02 05:26:27;;;;;;;173.55;45.67;;;;;;;;;;5045034;28;20679;-61
2022/10/02 05:29:05;;;;;;;205.55;47.17;;;;;;;;;;5044603;28;20124;-61
2022/10/02 05:31:50;;;;;;;190.80;48.50;;;;;;;;;;5044368;28;20123;-60
2022/10/02 05:34:30;;;;;;;201.65;50.03;;;;;;;;;;5044336;28;20065;-62
2022/10/02 05:37:05;;;;;;;231.18;49.55;;;;;;;;;;5046228;28;20041;-62
2022/10/02 05:39:37;;;;;;;184.15;46.60;;;;;;;;;;5049541;28;20067;-62
2022/10/02 05:42:04;;;;;;;208.55;49.70;;;;;;;;;;5044940;28;20529;-64
2022/10/02 05:44:36;;;;;;;193.57;47.90;;;;;;;;;;5044803;28;20401;-64
2022/10/02 05:47:08;;;;;;;205.13;46.97;;;;;;;;;;5038329;28;20045;-62
2022/10/02 05:49:42;;;;;;;207.55;50.65;;;;;;;;;;5048265;28;20036;-64
2022/10/02 05:52:16;;;;;;;189.77;47.65;;;;;;;;;;5044366;28;20084;-63
2022/10/02 05:54:59;;;;;;;209.25;48.33;;;;;;;;;;5045230;28;20040;-63
2022/10/02 05:57:31;;;;;;;187.23;45.20;;;;;;;;;;5047694;28;20036;-64
2022/10/02 06:00:00;;;;;;;181.15;45.80;;;;;;;;;;5043385;28;20045;-62
2022/10/02 06:02:48;;;;;;;198.50;47.40;;;;;;;;;;5043287;28;20080;-62
2022/10/02 06:05:34;;;;;;;166.70;43.30;;;;;;;;;;5043651;28;20417;-64
2022/10/02 06:08:02;;;;;;;169.93;44.00;;;;;;;;;;5043778;28;20120;-64
2022/10/02 06:10:40;;;;;;;172.52;42.85;;;;;;;;;;5044344;28;20049;-65
2022/10/02 06:13:12;;;;;;;151.35;39.25;;;;;;;;;;5044403;28;20045;-63
2022/10/02 06:15:44;;;;;;;187.50;44.47;;;;;;;;;;5044831;28;20453;-63
2022/10/02 06:18:30;;;;;;;197.05;43.38;;;;;;;;;;5045343;28;20049;-62
2022/10/02 06:21:03;;;;;;;169.70;43.35;;;;;;;;;;5043692;28;20045;-61
2022/10/02 06:23:33;;;;;;;186.18;42.63;;;;;;;;;;5043639;28;20072;-61
2022/10/02 06:26:05;;;;;;;183.52;41.03;;;;;;;;;;5044594;28;20037;-61
2022/10/02 06:28:53;;;;;;;159.00;38.33;;;;;;;;;;5048119;28;20497;-62
2022/10/02 06:31:28;;;;;;;173.43;37.70;;;;;;;;;;5043930;28;20095;-62
2022/10/02 06:33:55;;;;;;;182.55;38.63;;;;;;;;;;5045558;28;20048;-64
2022/10/02 06:36:24;;;;;;;160.73;37.63;;;;;;;;;;5047272;28;20047;-61
2022/10/02 06:38:54;;;;;;;142.05;36.72;;;;;;;;;;5043533;28;20073;-66
2022/10/02 06:41:40;;;;;;;147.02;36.78;;;;;;;;;;5043860;28;20041;-62
2022/10/02 06:44:13;;;;;;;123.80;34.67;;;;;;;;;;5044595;28;20033;-64
2022/10/02 06:46:40;;;;;;;158.98;38.60;;;;;;;;;;5030263;28;20135;-61
2022/10/02 06:49:12;;;;;;;178.65;47.45;;;;;;;;;;5044176;28;20045;-60
2022/10/02 06:51:39;;;;;;;197.97;53.83;;;;;;;;;;5044241;28;20048;-67
2022/10/02 06:54:18;;;;;;;185.20;55.47;;;;;;;;;;5046371;28;20045;-66
2022/10/02 06:57:05;;;;;;;210.68;67.43;;;;;;;;;;5048023;28;20048;-62
2022/10/02 06:59:53;;;;;;;206.13;56.25;;;;;;;;;;5046483;28;20041;-65
2022/10/02 07:02:29;;;;;;;220.65;64.88;;;;;;;;;;5041222;28;20415;-63
2022/10/02 07:04:55;;;;;;;203.43;48.75;;;;;;;;;;5045826;28;20676;-62
2022/10/02 07:07:40;;;;;;;181.70;48.13;;;;;;;;;;5047493;28;20045;-61
2022/10/02 07:10:27;;;;;;;173.70;45.88;;;;;;;;;;5047241;28;20049;-61
2022/10/02 07:12:53;;;;;;;192.13;44.72;;;;;;;;;;5048520;28;20044;-61
2022/10/02 07:15:34;;;;;;;192.02;47.60;;;;;;;;;;5050139;28;20064;-62
2022/10/02 07:18:04;;;;;;;151.52;35.72;;;;;;;;;;5047164;28;20044;-64
2022/10/02 07:20:33;;;;;;;162.68;37.60;;;;;;;;;;5047218;28;20477;-64
2022/10/02 07:23:18;;;;;;;165.98;39.03;;;;;;;;;;5046986;28;20033;-64
2022/10/02 07:25:50;;;;;;;181.63;41.53;;;;;;;;;;5047295;28;20099;-64
2022/10/02 07:28:20;;;;;;;136.45;40.67;;;;;;;;;;5047665;28;20037;-66
2022/10/02 07:31:07;;;;;;;177.60;42.80;;;;;;;;;;5048902;28;20126;-64
2022/10/02 07:34:00;;;;;;;155.73;39.83;;;;;;;;;;5044324;28;20056;-64
2022/10/02 07:36:38;;;;;;;175.25;38.33;;;;;;;;;;5049907;28;20102;-64
2022/10/02 07:39:20;;;;;;;169.88;43.45;;;;;;;;;;5045938;28;20040;-64
2022/10/02 07:42:05;;;;;;;183.57;38.53;;;;;;;;;;5046132;28;20037;-64
2022/10/02 07:44:43;;;;;;;146.52;37.20;;;;;;;;;;5045400;28;20041;-64
2022/10/02 07:47:20;;;;;;;176.75;37.30;;;;;;;;;;5042794;28;20037;-64
2022/10/02 07:49:53;;;;;;;165.35;37.67;;;;;;;;;;5046074;28;20037;-64
2022/10/02 07:52:28;;;;;;;140.45;34.67;;;;;;;;;;5047623;28;20037;-64
2022/10/02 07:55:00;;;;;;;166.85;34.83;;;;;;;;;;5047699;28;20095;-64
2022/10/02 07:57:30;;;;;;;158.50;36.87;;;;;;;;;;5049529;28;20041;-64
2022/10/02 08:00:00;;;;;;;129.13;35.45;;;;;;;;;;5045379;28;20285;-65
2022/10/02 08:02:55;;;;;;;149.75;37.90;;;;;;;;;;5045306;28;20048;-65
2022/10/02 08:05:39;;;;;;;127.05;32.92;;;;;;;;;;5043351;28;20049;-64
2022/10/02 08:08:10;;;;;;;119.40;27.80;;;;;;;;;;5046522;28;20116;-63
2022/10/02 08:10:40;;;;;;;143.18;35.42;;;;;;;;;;5045665;28;20501;-63
2022/10/02 08:13:14;;;;;;;164.50;33.80;;;;;;;;;;5049184;28;20040;-63
2022/10/02 08:15:43;;;;;;;136.38;32.55;;;;;;;;;;5046783;28;20494;-64
2022/10/02 08:18:30;;;;;;;114.50;29.63;;;;;;;;;;5046427;28;20037;-63
2022/10/02 08:21:01;;;;;;;115.35;31.38;;;;;;;;;;5041789;28;20099;-63
2022/10/02 08:23:32;;;;;;;90.22;28.58;;;;;;;;;;5048944;28;20037;-63
2022/10/02 08:26:05;;;;;;;151.32;43.60;;;;;;;;;;5045126;28;20457;-62
2022/10/02 08:28:48;;;;;;;95.90;25.23;;;;;;;;;;5045587;28;20059;-63
2022/10/02 08:31:15;;;;;;;162.90;31.02;;;;;;;;;;5044738;28;20045;-63
2022/10/02 08:33:42;;;;;;;127.72;24.30;;;;;;;;;;5049224;28;20036;-63
2022/10/02 08:36:20;;;;;;;71.05;20.50;;;;;;;;;;5046708;28;20088;-63
2022/10/02 08:38:50;;;;;;;93.57;21.52;;;;;;;;;;5045127;28;20053;-64
2022/10/02 08:41:20;;;;;;;;;;;;;;;;;;5039866;28;20470;-64
2022/10/02 08:43:46;;;;;;;119.95;22.13;;;;;;;;;;5044726;28;19943;-63
2022/10/02 08:46:13;;;;;;;75.85;17.83;;;;;;;;;;5045271;28;20045;-64
2022/10/02 08:48:54;;;;;;;88.57;18.70;;;;;;;;;;5050532;28;20102;-64
2022/10/02 08:51:39;;;;;;;93.68;16.70;;;;;;;;;;5049037;28;20508;-63
2022/10/02 08:54:31;;;;;;;76.07;16.60;;;;;;;;;;5045102;28;20041;-63
2022/10/02 08:57:16;;;;;;;89.18;16.20;;;;;;;;;;5043816;28;20460;-63
2022/10/02 09:00:05;;;;;;;77.95;15.63;;;;;;;;;;5045088;28;20043;-63
2022/10/02 09:02:56;;;;;;;72.20;14.43;;;;;;;;;;5022324;28;20053;-64
2022/10/02 09:05:41;;;;;;;84.43;13.43;;;;;;;;;;5026709;28;20619;-64
2022/10/02 09:08:29;;;;;;;69.13;14.05;;;;;;;;;;5023336;28;20521;-64
2022/10/02 09:10:58;;;;;;;88.65;12.70;;;;;;;;;;5022527;28;20049;-64
2022/10/02 09:13:44;;;;;;;66.13;10.85;;;;;;;;;;5023708;28;20054;-63
2022/10/02 09:16:16;;;;;;;69.63;11.60;;;;;;;;;;5023326;28;20466;-64
2022/10/02 09:18:46;;;;;;;59.22;11.05;;;;;;;;;;5023721;28;20057;-64
2022/10/02 09:21:16;;;;;;;67.97;11.15;;;;;;;;;;5024534;28;20049;-64
2022/10/02 09:23:49;;;;;;;89.90;10.18;;;;;;;;;;5022548;28;20048;-64
2022/10/02 09:26:31;;;;;;;70.00;9.45;;;;;;;;;;5023152;28;20576;-63
2022/10/02 09:29:10;;;;;;;94.53;9.70;;;;;;;;;;5022828;28;20677;-63
2022/10/02 09:31:52;;;;;;;63.55;7.38;;;;;;;;;;5022359;28;20503;-63
2022/10/02 09:34:25;;;;;;;67.20;7.78;;;;;;;;;;5022576;28;20054;-63
2022/10/02 09:37:11;;;;;;;99.43;10.52;;;;;;;;;;5025279;28;20050;-63
2022/10/02 09:39:38;;;;;;;70.32;8.15;;;;;;;;;;5027162;28;20053;-63
2022/10/02 09:42:23;;;;;;;55.97;7.32;;;;;;;;;;5044396;28;20429;-63
2022/10/02 09:44:55;;;;;;;61.08;7.82;;;;;;;;;;5044864;28;20071;-64
2022/10/02 09:47:26;;;;;;;67.07;8.65;;;;;;;;;;5044716;28;20037;-64
2022/10/02 09:49:53;;;;;;;79.63;10.55;;;;;;;;;;5044551;28;20040;-64
2022/10/02 09:52:32;;;;;;;87.95;9.63;;;;;;;;;;5045295;28;20049;-63
2022/10/02 09:55:19;;;;;;;95.85;9.77;;;;;;;;;;5044859;28;20079;-64
2022/10/02 09:57:46;;;;;;;81.50;8.18;;;;;;;;;;5044621;28;20051;-62
2022/10/02 10:00:50;;;;;;;62.20;7.53;;;;;;;;;;5046034;28;20041;-63
2022/10/02 10:03:25;;;;;;;53.08;5.97;;;;;;;;;;5006141;28;20205;-65
2022/10/02 10:06:10;;;;;;;74.20;8.07;;;;;;;;;;5004645;28;20053;-66
2022/10/02 10:08:36;;;;;;;47.47;5.70;;;;;;;;;;5001671;28;20757;-64
2022/10/02 10:11:18;;;;;;;79.68;6.55;;;;;;;;;;5000297;28;20065;-63
2022/10/02 10:13:47;;;;;;;78.25;6.65;;;;;;;;;;5001225;28;20145;-66
2022/10/02 10:16:32;;;;;;;67.13;6.75;;;;;;;;;;5001678;28;20466;-67
2022/10/02 10:19:21;;;;;;;85.72;7.70;;;;;;;;;;5003898;28;20104;-63
2022/10/02 10:22:06;;;;;;;78.45;7.57;;;;;;;;;;5002116;28;20042;-64
2022/10/02 10:24:51;;;;;;;74.22;7.15;;;;;;;;;;5005641;28;20050;-63
2022/10/02 10:27:17;;;;;;;60.00;6.05;;;;;;;;;;5003033;28;20522;-63
2022/10/02 10:29:49;;;;;;;96.10;7.60;;;;;;;;;;5000763;28;20076;-63
2022/10/02 10:32:16;;;;;;;69.35;7.68;;;;;;;;;;5005016;28;20050;-63
2022/10/02 10:34:59;;;;;;;52.92;5.63;;;;;;;;;;5001815;28;20498;-64
2022/10/02 10:40:19;;;;;;;63.80;6.07;;;;;;;;;;5044426;28;20490;-63
2022/10/02 10:43:05;;;;;;;73.47;7.25;;;;;;;;;;5047545;28;20118;-64
2022/10/02 10:45:52;;;;;;;69.85;6.35;;;;;;;;;;5047859;28;20045;-64
2022/10/02 10:48:19;;;;;;;71.03;7.00;;;;;;;;;;5045444;28;20052;-62
2022/10/02 10:50:59;;;;;;;65.28;7.13;;;;;;;;;;5043366;28;20525;-62
2022/10/02 10:53:44;;;;;;;83.90;7.65;;;;;;;;;;5044015;28;20116;-61
2022/10/02 10:56:33;;;;;;;71.53;7.63;;;;;;;;;;5044823;28;20413;-63
2022/10/02 10:59:00;;;;;;;64.13;6.20;;;;;;;;;;5040353;28;20415;-62
2022/10/02 11:01:44;;;;;;;85.22;7.40;;;;;;;;;;5043559;28;20033;-63
2022/10/02 11:04:38;;;;;;;68.63;5.60;;;;;;;;;;5044214;28;20053;-62
2022/10/02 11:07:14;;;;;;;89.35;7.45;;;;;;;;;;5043989;28;20153;-63
2022/10/02 11:09:40;;;;;;;63.70;6.10;;;;;;;;;;5044259;28;20051;-63
2022/10/02 11:12:07;;;;;;;67.68;5.78;;;;;;;;;;5043749;28;20078;-63
2022/10/02 11:14:50;;;;;;;42.55;5.40;;;;;;;;;;5043901;28;20622;-62
2022/10/02 11:17:20;;;;;;;61.33;5.88;;;;;;;;;;5043832;28;20398;-63
2022/10/02 11:19:58;;;;;;;84.90;8.30;;;;;;;;;;5041635;28;20116;-63
2022/10/02 11:22:44;;;;;;;75.28;6.20;;;;;;;;;;5042591;28;20115;-62
2022/10/02 11:25:17;;;;;;;63.70;6.18;;;;;;;;;;5043438;28;20029;-62
2022/10/02 11:27:56;;;;;;;80.65;8.15;;;;;;;;;;5044160;28;20043;-62
2022/10/02 11:30:43;;;;;;;75.38;6.65;;;;;;;;;;5045622;28;20045;-63
2022/10/02 11:33:28;;;;;;;58.28;5.07;;;;;;;;;;5040590;28;20418;-62
2022/10/02 11:36:15;;;;;;;54.65;5.60;;;;;;;;;;5024503;28;20053;-62
2022/10/02 11:38:54;;;;;;;56.70;4.93;;;;;;;;;;5003670;28;20058;-61
2022/10/02 11:41:30;;;;;;;76.32;5.70;;;;;;;;;;5030533;28;20659;-62
2022/10/02 11:44:10;;;;;;;60.35;5.95;;;;;;;;;;5043505;28;20555;-62
2022/10/02 11:46:54;;;;;;;72.80;6.57;;;;;;;;;;5018409;28;20472;-62
2022/10/02 11:49:29;;;;;;;67.07;7.05;;;;;;;;;;5043412;28;20417;-64
2022/10/02 11:51:56;;;;;;;89.68;7.72;;;;;;;;;;5045813;28;20092;-64
2022/10/02 11:54:28;;;;;;;85.28;6.90;;;;;;;;;;5046067;28;20044;-63
2022/10/02 11:57:13;;;;;;;63.03;6.18;;;;;;;;;;5043768;28;20612;-62
2022/10/02 11:59:42;;;;;;;58.35;6.32;;;;;;;;;;5043330;28;20052;-62
2022/10/02 12:02:37;;;;;;;45.15;4.57;;;;;;;;;;5043785;28;20041;-64
2022/10/02 12:05:23;;;;;;;55.25;5.30;;;;;;;;;;5003494;28;20170;-62
2022/10/02 12:08:00;;;;;;;85.65;6.65;;;;;;;;;;5003218;28;20108;-62
2022/10/02 12:10:26;;;;;;;62.42;6.15;;;;;;;;;;4993536;28;20122;-61
2022/10/02 12:13:03;;;;;;;84.28;10.98;;;;;;;;;;4987858;28;20838;-62
2022/10/02 12:15:33;;;;;;;57.92;7.25;;;;;;;;;;4987529;28;20104;-63
2022/10/02 12:18:05;;;;;;;40.08;4.47;;;;;;;;;;4984091;28;20042;-63
2022/10/02 12:26:59;;;;;;;54.75;6.25;;;;;;;;;;5003671;28;20066;-62
2022/10/02 12:29:31;;;;;;;76.07;6.82;;;;;;;;;;5005043;28;20100;-63
2022/10/02 12:32:00;;;;;;;75.95;7.03;;;;;;;;;;5003328;28;20108;-63
2022/10/02 12:34:33;;;;;;;57.67;6.75;;;;;;;;;;5004590;28;20113;-62
2022/10/02 12:37:23;;;;;;;121.10;10.32;;;;;;;;;;5005432;28;20064;-64
2022/10/02 12:40:09;;;;;;;108.78;10.50;;;;;;;;;;4986621;28;20049;-65
2022/10/02 12:42:35;;;;;;;84.93;10.30;;;;;;;;;;5022255;28;20060;-63
2022/10/02 12:45:20;;;;;;;56.05;5.50;;;;;;;;;;5022384;28;20046;-64
2022/10/02 12:47:52;;;;;;;99.97;9.88;;;;;;;;;;5020084;28;20041;-61
2022/10/02 12:50:26;;;;;;;55.35;5.85;;;;;;;;;;5022568;28;20557;-65
2022/10/02 12:53:05;;;;;;;68.00;8.65;;;;;;;;;;5021753;28;20049;-60
2022/10/02 12:55:41;;;;;;;73.57;9.00;;;;;;;;;;5022453;28;20041;-65
2022/10/02 12:58:09;;;;;;;74.95;6.65;;;;;;;;;;5022980;28;20045;-65
2022/10/02 13:00:44;;;;;;;67.82;6.78;;;;;;;;;;5027042;28;20212;-67
2022/10/02 13:03:29;;;;;;;65.88;7.93;;;;;;;;;;5039970;28;20502;-63
2022/10/02 13:06:00;;;;;;;82.82;8.27;;;;;;;;;;5044832;28;20452;-62
2022/10/02 13:08:47;;;;;;;61.58;5.55;;;;;;;;;;5044041;28;20056;-63
2022/10/02 13:11:16;;;;;;;86.82;7.18;;;;;;;;;;5044641;28;20069;-63
2022/10/02 13:14:19;;;;;;;93.22;8.45;;;;;;;;;;5044897;28;20142;-62
2022/10/02 13:16:45;;;;;;;63.80;6.68;;;;;;;;;;5002879;28;20042;-64
2022/10/02 13:19:29;;;;;;;130.27;9.00;;;;;;;;;;4986263;28;20057;-63
2022/10/02 13:22:13;;;;;;;144.93;11.02;;;;;;;;;;5002467;28;20089;-61
2022/10/02 13:24:54;;;;;;;55.83;5.13;;;;;;;;;;5007662;28;20538;-63
2022/10/02 13:27:26;;;;;;;51.85;5.65;;;;;;;;;;5007269;28;20049;-63
2022/10/02 13:30:16;;;;;;;65.15;6.03;;;;;;;;;;5002099;28;20442;-62
2022/10/02 13:32:52;;;;;;;51.85;5.10;;;;;;;;;;5002230;28;20592;-62
2022/10/02 13:35:25;;;;;;;39.85;4.63;;;;;;;;;;4996248;28;20691;-62
2022/10/02 13:37:57;;;;;;;84.70;7.38;;;;;;;;;;5001604;28;20065;-61
2022/10/02 13:40:35;;;;;;;86.55;7.30;;;;;;;;;;5002757;28;20049;-61
2022/10/02 13:43:18;;;;;;;67.82;6.18;;;;;;;;;;5004680;28;20048;-60
2022/10/02 13:45:44;;;;;;;76.85;6.97;;;;;;;;;;5002990;28;20506;-62
2022/10/02 13:48:21;;;;;;;102.28;7.97;;;;;;;;;;5001659;28;20046;-62
2022/10/02 13:50:53;;;;;;;86.63;6.60;;;;;;;;;;5022462;28;20065;-61
2022/10/02 13:53:44;;;;;;;64.60;5.72;;;;;;;;;;5044167;28;20497;-62
2022/10/02 13:56:30;;;;;;;61.25;5.50;;;;;;;;;;5044307;28;20069;-63
2022/10/02 13:59:05;;;;;;;52.13;5.32;;;;;;;;;;5044635;28;20040;-62
2022/10/02 14:01:40;;;;;;;71.10;6.47;;;;;;;;;;5043904;28;20040;-63
2022/10/02 14:04:18;;;;;;;52.78;5.43;;;;;;;;;;5045756;28;20049;-65
2022/10/02 14:06:49;;;;;;;69.07;6.28;;;;;;;;;;5045027;28;20123;-64
2022/10/02 14:09:18;;;;;;;61.00;6.10;;;;;;;;;;5045390;28;20414;-65
2022/10/02 14:11:44;;;;;;;85.10;6.88;;;;;;;;;;5043519;28;20080;-65
2022/10/02 14:14:27;;;;;;;51.40;5.43;;;;;;;;;;5044481;28;20072;-65
2022/10/02 14:17:12;;;;;;;60.42;6.22;;;;;;;;;;5048018;28;20044;-65
2022/10/02 14:19:41;;;;;;;57.80;5.45;;;;;;;;;;5044670;28;20040;-65
2022/10/02 14:22:26;;;;;;;92.45;7.45;;;;;;;;;;5045495;28;20154;-64
2022/10/02 14:24:59;;;;;;;86.88;9.93;;;;;;;;;;5044878;28;20040;-65
2022/10/02 14:27:28;;;;;;;84.47;6.80;;;;;;;;;;5048471;28;20045;-65
2022/10/02 14:29:58;;;;;;;64.13;6.07;;;;;;;;;;5042414;28;20290;-66
2022/10/02 14:32:40;;;;;;;67.57;5.65;;;;;;;;;;5045695;28;20472;-66
2022/10/02 14:35:21;;;;;;;43.60;4.65;;;;;;;;;;5045565;28;20569;-66
2022/10/02 14:38:03;;;;;;;79.75;7.43;;;;;;;;;;5041093;28;20069;-65
2022/10/02 14:40:50;;;;;;;41.20;5.20;;;;;;;;;;5045709;28;20673;-66
2022/10/02 14:43:19;;;;;;;67.95;6.57;;;;;;;;;;5044157;28;20436;-65
2022/10/02 14:45:57;;;;;;;81.18;7.60;;;;;;;;;;5047790;28;20049;-63
2022/10/02 14:48:42;;;;;;;61.42;6.60;;;;;;;;;;5047745;28;20041;-63
2022/10/02 14:51:27;;;;;;;52.63;6.28;;;;;;;;;;5045140;28;20036;-63
2022/10/02 14:53:54;;;;;;;108.07;9.23;;;;;;;;;;5042349;28;20041;-66
2022/10/02 14:56:29;;;;;;;74.53;7.35;;;;;;;;;;5043049;28;20440;-64
2022/10/02 14:59:08;;;;;;;271.67;20.05;;;;;;;;;;5039875;28;20083;-64
2022/10/02 15:01:44;;;;;;;105.53;9.98;;;;;;;;;;5044168;28;20049;-64
2022/10/02 15:04:24;;;;;;;55.88;6.72;;;;;;;;;;5044942;28;20636;-64
2022/10/02 15:06:56;;;;;;;68.60;7.35;;;;;;;;;;5047659;28;20041;-64
2022/10/02 15:09:41;;;;;;;59.67;7.22;;;;;;;;;;5047550;28;20448;-64